Time;durP1;ratioP1;P1;durP2;ratioP2;P2;SDS_P1;SDS_P2;PMS_P1;PMS_P2;Temp;Humidity;BMP_temperature;BMP_pressure;BME280_temperature;BME280_humidity;BME280_pressure;Samples;Min_cycle;Max_cycle;Signal;HPM_P1;HPM_P2
2023/07/23 00:00:21;;;;;;;18.60;6.50;;;;;;;32.39;42.59;99335.44;4858898;29;20062;-42
2023/07/23 00:02:46;;;;;;;11.02;5.55;;;;;;;31.87;43.99;99346.44;4859212;29;20037;-43
2023/07/23 00:05:12;;;;;;;12.35;5.95;;;;;;;31.62;44.96;99348.56;4858120;29;20489;-46
2023/07/23 00:07:37;;;;;;;13.95;5.78;;;;;;;31.55;45.09;99349.19;4858576;29;20022;-45
2023/07/23 00:10:03;;;;;;;11.73;5.53;;;;;;;31.66;45.06;99351.41;4858574;29;20090;-44
2023/07/23 00:12:28;;;;;;;13.43;5.68;;;;;;;31.73;45.11;99360.63;4858951;29;20025;-45
2023/07/23 00:14:54;;;;;;;11.35;5.53;;;;;;;32.01;44.51;99367.97;4858803;29;20648;-43
2023/07/23 00:17:19;;;;;;;11.10;5.45;;;;;;;32.33;43.54;99371.50;4858883;29;20037;-42
2023/07/23 00:19:45;;;;;;;9.80;5.30;;;;;;;32.25;43.57;99366.19;4858866;29;20037;-45
2023/07/23 00:22:10;;;;;;;10.77;4.97;;;;;;;31.78;44.80;99370.56;4858470;29;20037;-43
2023/07/23 00:24:37;;;;;;;11.13;5.00;;;;;;;31.67;45.39;99375.78;4858664;29;20041;-42
2023/07/23 00:27:02;;;;;;;11.27;5.53;;;;;;;31.62;45.59;99381.53;4858469;29;20042;-45
2023/07/23 00:29:28;;;;;;;13.07;5.20;;;;;;;31.71;45.46;99378.63;4858496;29;20057;-43
2023/07/23 00:31:54;;;;;;;12.30;5.22;;;;;;;31.61;45.46;99379.97;4858465;29;20041;-43
2023/07/23 00:34:20;;;;;;;12.90;5.00;;;;;;;31.81;45.02;99383.59;4858550;29;20421;-42
2023/07/23 00:36:45;;;;;;;13.25;5.28;;;;;;;32.45;43.26;99389.06;4858359;29;20037;-43
2023/07/23 00:39:11;;;;;;;12.50;5.47;;;;;;;31.79;44.64;99398.88;4858248;29;20029;-46
2023/07/23 00:41:36;;;;;;;11.85;5.05;;;;;;;31.55;45.23;99395.13;4846839;29;20030;-45
2023/07/23 00:44:03;;;;;;;11.18;5.00;;;;;;;31.42;45.86;99394.38;4840144;29;20026;-45
2023/07/23 00:46:28;;;;;;;15.95;5.30;;;;;;;31.33;45.90;99380.78;4839679;29;20037;-43
2023/07/23 00:48:54;;;;;;;11.40;5.72;;;;;;;31.49;45.70;99393.78;4839505;29;20034;-43
2023/07/23 00:51:20;;;;;;;11.43;5.70;;;;;;;31.57;45.15;99403.81;4839256;29;20060;-45
2023/07/23 00:53:47;;;;;;;18.20;5.70;;;;;;;32.05;43.99;99401.91;4839761;29;20033;-45
2023/07/23 00:56:13;;;;;;;13.73;5.82;;;;;;;31.59;44.89;99412.53;4838867;29;20038;-43
2023/07/23 00:58:38;;;;;;;10.30;5.63;;;;;;;30.97;46.39;99417.44;4839132;29;20041;-43
2023/07/23 01:01:04;;;;;;;15.70;5.63;;;;;;;30.92;46.56;99413.00;4839913;29;20026;-43
2023/07/23 01:03:29;;;;;;;12.68;5.32;;;;;;;31.05;46.02;99418.44;4838853;29;20063;-43
2023/07/23 01:06:01;;;;;;;13.13;5.22;;;;;;;31.38;45.75;99429.22;4839640;29;20469;-43
2023/07/23 01:08:27;;;;;;;12.55;5.43;;;;;;;31.58;45.23;99426.63;4839682;29;20109;-43
2023/07/23 01:10:53;;;;;;;13.70;5.65;;;;;;;31.84;44.34;99428.88;4839776;29;20105;-43
2023/07/23 01:13:19;;;;;;;11.68;5.60;;;;;;;31.70;44.94;99432.03;4839801;29;20058;-44
2023/07/23 01:15:44;;;;;;;11.38;5.70;;;;;;;31.34;45.88;99425.56;4839515;29;20187;-44
2023/07/23 01:18:11;;;;;;;17.92;5.95;;;;;;;30.82;47.46;99420.91;4839223;29;20140;-43
2023/07/23 01:20:36;;;;;;;10.95;5.72;;;;;;;29.93;49.69;99416.91;4839457;29;20411;-44
2023/07/23 01:23:02;;;;;;;13.30;5.70;;;;;;;29.95;50.10;99422.84;4839119;29;20041;-44
2023/07/23 01:25:27;;;;;;;15.85;5.45;;;;;;;29.94;49.86;99430.28;4839170;29;20038;-43
2023/07/23 01:27:53;;;;;;;15.77;6.07;;;;;;;30.27;48.72;99431.34;4842632;29;20061;-44
2023/07/23 01:30:19;;;;;;;13.27;5.43;;;;;;;30.43;48.53;99440.53;4858083;29;20030;-42
2023/07/23 01:32:46;;;;;;;13.18;5.22;;;;;;;30.28;48.95;99435.69;4857713;29;20135;-43
2023/07/23 01:35:14;;;;;;;12.70;5.68;;;;;;;30.19;49.30;99430.31;4856675;29;20040;-44
2023/07/23 01:37:41;;;;;;;13.13;5.40;;;;;;;30.20;49.32;99440.16;4857508;29;20469;-42
2023/07/23 01:40:07;;;;;;;14.07;5.70;;;;;;;30.26;49.54;99444.28;4857554;29;20033;-41
2023/07/23 01:42:33;;;;;;;12.88;5.93;;;;;;;30.49;48.91;99449.31;4857498;29;20033;-43
2023/07/23 01:45:03;;;;;;;13.70;5.30;;;;;;;30.74;47.95;99445.41;4857693;29;20439;-43
2023/07/23 01:47:29;;;;;;;13.48;5.65;;;;;;;30.83;47.93;99459.00;4857849;29;20033;-42
2023/07/23 01:49:54;;;;;;;10.60;5.43;;;;;;;30.24;49.00;99451.25;4866217;29;20097;-42
2023/07/23 01:52:20;;;;;;;13.80;5.50;;;;;;;30.24;48.97;99445.75;4858094;29;20044;-44
2023/07/23 01:54:45;;;;;;;14.40;5.22;;;;;;;30.27;48.88;99445.84;4858271;29;20501;-45
2023/07/23 01:57:11;;;;;;;18.95;5.57;;;;;;;29.97;49.49;99459.00;4858211;29;20136;-43
2023/07/23 01:59:36;;;;;;;12.50;5.05;;;;;;;29.66;50.06;99457.50;4858259;29;20072;-43
2023/07/23 02:02:04;;;;;;;11.65;5.85;;;;;;;29.75;49.67;99458.25;4858493;29;20442;-45
2023/07/23 02:04:30;;;;;;;17.83;6.47;;;;;;;30.20;48.74;99459.38;4858115;29;20074;-46
2023/07/23 02:06:55;;;;;;;14.88;5.50;;;;;;;29.79;49.82;99461.91;4858287;29;20038;-43
2023/07/23 02:09:21;;;;;;;14.50;5.30;;;;;;;29.87;49.67;99457.47;4857910;29;20124;-42
2023/07/23 02:11:46;;;;;;;14.15;5.13;;;;;;;29.87;49.99;99451.97;4857873;29;20025;-43
2023/07/23 02:14:12;;;;;;;18.10;5.80;;;;;;;29.70;50.11;99454.88;4858565;29;20022;-44
2023/07/23 02:16:37;;;;;;;14.00;5.60;;;;;;;29.81;49.74;99456.09;4861526;29;20542;-42
2023/07/23 02:19:02;;;;;;;11.85;5.15;;;;;;;30.11;49.08;99442.19;4861298;29;20032;-42
2023/07/23 02:21:28;;;;;;;13.35;5.60;;;;;;;29.66;49.78;99437.53;4861731;29;20100;-44
2023/07/23 02:23:53;;;;;;;16.13;6.90;;;;;;;29.45;50.78;99443.84;4861543;29;20479;-46
2023/07/23 02:26:19;;;;;;;12.15;5.30;;;;;;;29.28;51.32;99444.00;4861785;29;20459;-46
2023/07/23 02:28:44;;;;;;;13.35;5.32;;;;;;;29.30;50.64;99456.25;4851000;29;20086;-45
2023/07/23 02:31:10;;;;;;;12.88;5.40;;;;;;;29.41;49.44;99451.94;4842743;29;20066;-43
2023/07/23 02:33:35;;;;;;;10.63;4.88;;;;;;;29.42;49.48;99459.03;4842809;29;20076;-44
2023/07/23 02:36:02;;;;;;;12.52;5.28;;;;;;;29.76;48.26;99461.81;4842890;29;20030;-43
2023/07/23 02:38:28;;;;;;;12.35;5.72;;;;;;;29.92;47.62;99464.69;4842694;29;20156;-45
2023/07/23 02:40:57;;;;;;;14.80;5.40;;;;;;;29.54;48.54;99469.22;4842504;29;20464;-42
2023/07/23 02:43:23;;;;;;;18.20;5.40;;;;;;;29.41;48.84;99475.81;4842617;29;20034;-44
2023/07/23 02:45:49;;;;;;;14.02;5.50;;;;;;;29.21;49.12;99482.91;4842740;29;20033;-43
2023/07/23 02:48:14;;;;;;;10.30;4.82;;;;;;;29.43;48.50;99488.06;4842563;29;20038;-43
2023/07/23 02:50:40;;;;;;;14.30;5.22;;;;;;;29.62;48.50;99501.25;4856609;29;20037;-43
2023/07/23 02:53:06;;;;;;;12.15;5.13;;;;;;;30.19;46.63;99499.69;4842739;29;20475;-43
2023/07/23 02:55:32;;;;;;;12.98;4.75;;;;;;;29.65;48.32;99496.25;4842431;29;20134;-43
2023/07/23 02:57:57;;;;;;;15.07;5.30;;;;;;;29.39;49.27;99510.97;4842539;29;20030;-44
2023/07/23 03:00:23;;;;;;;12.18;4.93;;;;;;;29.40;48.98;99498.88;4841965;29;20082;-45
2023/07/23 03:02:48;;;;;;;11.38;5.18;;;;;;;29.50;48.70;99509.41;4842295;29;20384;-43
2023/07/23 03:05:15;;;;;;;15.40;5.45;;;;;;;29.56;48.93;99502.59;4842076;29;20037;-43
2023/07/23 03:07:40;;;;;;;14.13;5.10;;;;;;;29.84;47.86;99513.00;4842272;29;20382;-45
2023/07/23 03:10:06;;;;;;;13.00;5.20;;;;;;;30.09;46.28;99505.63;4842419;29;20034;-42
2023/07/23 03:12:33;;;;;;;16.08;5.10;;;;;;;30.54;45.33;99512.22;4842376;29;20208;-42
2023/07/23 03:14:59;;;;;;;14.82;5.65;;;;;;;29.92;47.02;99517.59;4842216;29;20034;-42
2023/07/23 03:17:24;;;;;;;10.48;5.60;;;;;;;29.54;47.89;99515.81;4842404;29;20442;-43
2023/07/23 03:19:50;;;;;;;10.65;5.65;;;;;;;29.67;47.94;99522.16;4842079;29;20517;-42
2023/07/23 03:22:16;;;;;;;9.98;5.22;;;;;;;29.49;49.38;99526.19;4842005;29;20033;-42
2023/07/23 03:24:41;;;;;;;15.30;5.05;;;;;;;29.55;49.17;99522.94;4842170;29;20050;-44
2023/07/23 03:27:07;;;;;;;13.95;5.60;;;;;;;29.65;48.87;99535.41;4824516;29;20037;-43
2023/07/23 03:29:32;;;;;;;15.57;5.22;;;;;;;29.82;48.43;99527.06;4841990;29;20054;-44
2023/07/23 03:31:57;;;;;;;12.07;5.40;;;;;;;29.85;48.80;99536.53;4842205;29;20032;-43
2023/07/23 03:34:23;;;;;;;12.35;4.93;;;;;;;30.00;48.31;99543.31;4841894;29;20025;-45
2023/07/23 03:36:48;;;;;;;17.30;5.57;;;;;;;30.13;47.51;99552.41;4841789;29;20047;-45
2023/07/23 03:39:17;;;;;;;13.90;5.68;;;;;;;30.15;46.83;99550.13;4841887;29;20459;-45
2023/07/23 03:41:44;;;;;;;11.05;5.35;;;;;;;30.10;47.01;99555.81;4841625;29;20417;-42
2023/07/23 03:44:10;;;;;;;14.88;5.65;;;;;;;30.14;47.13;99568.53;4841523;29;20509;-44
2023/07/23 03:47:04;;;;;;;12.68;5.25;;;;;;;30.12;47.07;99570.81;4841196;29;20112;-43
2023/07/23 03:49:30;;;;;;;11.80;5.55;;;;;;;30.20;47.35;99578.13;4851236;29;20500;-44
2023/07/23 03:51:56;;;;;;;13.63;5.20;;;;;;;30.13;48.17;99585.31;4860402;29;20029;-43
2023/07/23 03:54:22;;;;;;;14.90;5.40;;;;;;;30.98;45.73;99583.88;4859683;29;20120;-44
2023/07/23 03:56:47;;;;;;;13.10;5.68;;;;;;;30.53;46.42;99576.50;4859809;29;20025;-44
2023/07/23 03:59:13;;;;;;;14.40;6.20;;;;;;;30.14;47.82;99590.47;4859607;29;20400;-45
2023/07/23 04:01:38;;;;;;;15.15;5.55;;;;;;;30.13;47.16;99588.84;4859662;29;20033;-41
2023/07/23 04:04:04;;;;;;;16.10;5.78;;;;;;;30.27;47.69;99593.25;4860373;29;20036;-43
2023/07/23 04:06:29;;;;;;;12.73;5.65;;;;;;;30.43;47.47;99596.19;4859942;29;20460;-43
2023/07/23 04:08:54;;;;;;;11.45;5.28;;;;;;;30.68;47.18;99599.75;4841431;29;20038;-41
2023/07/23 04:11:20;;;;;;;14.73;5.60;;;;;;;30.93;46.26;99595.88;4841348;29;20038;-43
2023/07/23 04:13:48;;;;;;;13.25;5.40;;;;;;;31.22;45.02;99582.25;4841725;29;20037;-45
2023/07/23 04:16:13;;;;;;;13.85;5.55;;;;;;;31.54;43.90;99607.97;4841452;29;20049;-41
2023/07/23 04:18:50;;;;;;;12.15;5.60;;;;;;;31.67;44.73;99612.28;4841129;29;20034;-42
2023/07/23 04:21:21;;;;;;;13.90;5.63;;;;;;;31.93;43.37;99608.31;4841225;29;20364;-43
2023/07/23 04:23:48;;;;;;;13.75;6.07;;;;;;;32.25;42.81;99603.72;4841107;29;20045;-43
2023/07/23 04:26:18;;;;;;;10.10;5.25;;;;;;;32.49;42.44;99615.72;4841198;29;20487;-43
2023/07/23 04:28:44;;;;;;;13.10;5.90;;;;;;;32.70;42.17;99612.75;4840934;29;20054;-43
2023/07/23 04:31:11;;;;;;;15.73;6.18;;;;;;;32.36;42.63;99608.69;4841571;29;20121;-43
2023/07/23 04:33:36;;;;;;;13.80;5.95;;;;;;;32.49;42.03;99611.00;4840834;29;20034;-42
2023/07/23 04:36:07;;;;;;;15.35;5.78;;;;;;;32.88;41.33;99621.44;4840900;29;20040;-43
2023/07/23 04:38:33;;;;;;;16.85;5.93;;;;;;;33.14;41.00;99620.09;4840528;29;20463;-42
2023/07/23 04:40:59;;;;;;;13.98;5.40;;;;;;;33.60;39.08;99623.09;4840883;29;20030;-43
2023/07/23 04:43:25;;;;;;;12.60;5.35;;;;;;;33.86;38.31;99625.22;4840890;29;20407;-43
2023/07/23 04:45:50;;;;;;;13.32;4.43;;;;;;;34.35;36.07;99621.88;4840719;29;20033;-43
2023/07/23 04:48:16;;;;;;;12.40;4.78;;;;;;;34.14;36.02;99615.91;4840604;29;20034;-45
2023/07/23 04:50:42;;;;;;;11.00;4.57;;;;;;;34.19;35.58;99618.41;4840892;29;20025;-46
2023/07/23 04:53:08;;;;;;;14.48;4.35;;;;;;;34.49;34.92;99618.56;4840711;29;20038;-47
2023/07/23 04:55:34;;;;;;;15.30;4.40;;;;;;;34.82;34.11;99620.72;4840496;29;20094;-42
2023/07/23 04:57:59;;;;;;;8.32;4.25;;;;;;;35.09;33.79;99628.22;4840198;29;20037;-42
2023/07/23 05:00:26;;;;;;;13.60;4.20;;;;;;;35.22;33.66;99619.38;4839989;29;20042;-43
2023/07/23 05:02:51;;;;;;;11.65;4.25;;;;;;;34.93;34.17;99625.63;4840149;29;20037;-42
2023/07/23 05:05:17;;;;;;;9.00;3.90;;;;;;;34.85;34.56;99628.25;4838804;29;20049;-43
2023/07/23 05:07:42;;;;;;;10.23;4.30;;;;;;;35.31;34.36;99630.16;4839514;29;20101;-42
2023/07/23 05:10:08;;;;;;;11.02;4.22;;;;;;;35.58;33.46;99633.69;4839876;29;20048;-41
2023/07/23 05:12:34;;;;;;;14.32;4.13;;;;;;;35.79;33.01;99630.41;4839865;29;20190;-48
2023/07/23 05:15:13;;;;;;;9.48;4.10;;;;;;;35.97;33.15;99625.09;4839965;29;20038;-44
2023/07/23 05:17:40;;;;;;;11.23;4.00;;;;;;;36.25;32.61;99636.88;4839958;29;20034;-43
2023/07/23 05:20:06;;;;;;;11.45;4.13;;;;;;;36.11;32.73;99632.75;4840267;29;20150;-43
2023/07/23 05:22:40;;;;;;;14.38;4.03;;;;;;;36.45;32.38;99629.97;4839847;29;20124;-45
2023/07/23 05:25:06;;;;;;;9.25;3.75;;;;;;;36.69;32.03;99628.63;4840001;29;20117;-46
2023/07/23 05:27:32;;;;;;;10.88;3.97;;;;;;;36.96;31.55;99623.69;4840309;29;20042;-43
2023/07/23 05:29:57;;;;;;;10.70;4.22;;;;;;;36.64;31.73;99631.72;4858050;29;20037;-42
2023/07/23 05:32:22;;;;;;;10.30;3.95;;;;;;;36.69;31.13;99633.38;4858331;29;20044;-45
2023/07/23 05:34:48;;;;;;;10.35;3.40;;;;;;;35.94;31.98;99625.84;4858046;29;20037;-43
2023/07/23 05:37:13;;;;;;;12.75;4.15;;;;;;;36.17;32.13;99639.56;4858164;29;20115;-46
2023/07/23 05:39:39;;;;;;;13.70;4.18;;;;;;;35.90;32.59;99630.53;4857638;29;20025;-43
2023/07/23 05:42:05;;;;;;;12.02;3.65;;;;;;;36.77;31.38;99643.34;4857932;29;20033;-44
2023/07/23 05:44:31;;;;;;;12.18;4.13;;;;;;;36.74;31.64;99630.25;4858241;29;20109;-43
2023/07/23 05:46:56;;;;;;;12.18;4.28;;;;;;;36.43;32.06;99631.53;4858289;29;20058;-44
2023/07/23 05:49:22;;;;;;;8.32;3.83;;;;;;;36.61;31.91;99640.78;4858825;29;20026;-43
2023/07/23 05:51:48;;;;;;;14.15;3.88;;;;;;;36.61;31.99;99635.25;4862104;29;20032;-43
2023/07/23 05:54:13;;;;;;;11.63;4.10;;;;;;;37.15;31.50;99624.63;4861831;29;20029;-44
2023/07/23 05:56:39;;;;;;;11.80;3.80;;;;;;;37.65;30.49;99622.16;4861706;29;20033;-45
2023/07/23 05:59:04;;;;;;;10.88;4.05;;;;;;;37.52;30.80;99627.22;4860821;29;20033;-46
2023/07/23 06:01:29;;;;;;;11.98;4.00;;;;;;;37.63;30.71;99629.28;4861690;29;20037;-44
2023/07/23 06:03:55;;;;;;;10.70;3.60;;;;;;;38.06;30.10;99621.91;4861357;29;20089;-43
2023/07/23 06:06:22;;;;;;;12.57;3.75;;;;;;;38.61;29.87;99615.25;4861441;29;20037;-43
2023/07/23 06:08:48;;;;;;;9.37;3.90;;;;;;;37.91;30.60;99609.16;4861504;29;20048;-42
2023/07/23 06:11:14;;;;;;;9.90;4.30;;;;;;;36.43;32.44;99601.06;4858152;29;20025;-42
2023/07/23 06:13:39;;;;;;;11.70;3.80;;;;;;;36.77;32.06;99610.88;4842852;29;20166;-46
2023/07/23 06:16:04;;;;;;;11.93;3.92;;;;;;;37.58;31.52;99608.19;4842119;29;20038;-46
2023/07/23 06:18:30;;;;;;;11.30;4.15;;;;;;;38.13;30.75;99602.47;4842135;29;20045;-45
2023/07/23 06:20:55;;;;;;;10.18;3.92;;;;;;;38.05;30.81;99611.19;4843107;29;20082;-43
2023/07/23 06:23:21;;;;;;;9.13;3.78;;;;;;;37.87;31.17;99609.16;4843046;29;20026;-44
2023/07/23 06:25:52;;;;;;;12.52;4.15;;;;;;;37.73;31.17;99609.88;4842039;29;20060;-45
2023/07/23 06:28:18;;;;;;;10.90;3.92;;;;;;;37.88;31.18;99598.84;4841992;29;20057;-43
2023/07/23 06:30:43;;;;;;;8.27;3.80;;;;;;;38.05;31.12;99598.06;4841974;29;20113;-43
2023/07/23 06:33:09;;;;;;;9.40;4.30;;;;;;;38.38;30.07;99593.38;4843076;29;20485;-44
2023/07/23 06:35:37;;;;;;;16.73;4.20;;;;;;;38.94;29.56;99590.19;4842215;29;20423;-44
2023/07/23 06:38:02;;;;;;;;;;;;;;;39.27;29.29;99586.97;4842972;29;20064;-43
2023/07/23 06:40:28;;;;;;;9.88;3.80;;;;;;;39.07;28.91;99594.19;4842514;29;19923;-41
2023/07/23 06:42:53;;;;;;;11.68;4.30;;;;;;;39.26;28.45;99590.97;4842619;29;20093;-43
2023/07/23 06:45:18;;;;;;;13.60;4.03;;;;;;;39.43;28.65;99594.88;4842868;29;20037;-44
2023/07/23 06:47:44;;;;;;;10.95;4.30;;;;;;;39.86;27.59;99599.47;4842094;29;20113;-44
2023/07/23 06:50:09;;;;;;;11.63;4.40;;;;;;;39.00;28.36;99597.78;4842611;29;20026;-47
2023/07/23 06:52:35;;;;;;;10.80;4.43;;;;;;;37.90;29.97;99602.78;4842115;29;20355;-42
2023/07/23 06:55:00;;;;;;;12.45;4.10;;;;;;;37.34;30.58;99599.38;4842036;29;20441;-44
2023/07/23 06:57:26;;;;;;;9.40;4.40;;;;;;;37.97;29.80;99601.22;4842304;29;20099;-43
2023/07/23 06:59:51;;;;;;;13.35;4.28;;;;;;;37.86;29.85;99598.44;4841859;29;20165;-43
2023/07/23 07:02:16;;;;;;;9.55;4.07;;;;;;;37.91;29.47;99598.06;4841468;29;20063;-44
2023/07/23 07:04:42;;;;;;;8.88;4.00;;;;;;;38.76;28.29;99588.25;4842787;29;20037;-43
2023/07/23 07:07:07;;;;;;;8.43;4.28;;;;;;;38.89;28.70;99592.19;4842124;29;20052;-44
2023/07/23 07:09:33;;;;;;;13.60;4.10;;;;;;;38.39;29.16;99599.75;4842268;29;20042;-44
2023/07/23 07:11:58;;;;;;;11.23;4.15;;;;;;;38.41;28.92;99600.94;4842028;29;20179;-44
2023/07/23 07:14:24;;;;;;;11.45;4.00;;;;;;;39.34;28.05;99591.72;4842019;29;20113;-42
2023/07/23 07:16:49;;;;;;;12.88;4.28;;;;;;;39.00;27.72;99603.34;4841984;29;20022;-43
2023/07/23 07:19:15;;;;;;;8.90;4.35;;;;;;;38.91;27.74;99603.72;4839062;29;20034;-44
2023/07/23 07:21:40;;;;;;;7.38;3.88;;;;;;;38.95;27.62;99594.59;4844093;29;20562;-44
2023/07/23 07:24:06;;;;;;;9.65;4.63;;;;;;;39.40;26.37;99581.78;4841145;29;20486;-43
2023/07/23 07:26:32;;;;;;;7.95;4.25;;;;;;;39.88;25.63;99599.88;4840823;29;20038;-45
2023/07/23 07:28:58;;;;;;;12.70;4.43;;;;;;;39.19;26.06;99601.31;4831964;29;20062;-43
2023/07/23 07:31:24;;;;;;;7.82;4.20;;;;;;;39.40;25.69;99600.47;4823319;29;20027;-43
2023/07/23 07:33:49;;;;;;;8.75;4.18;;;;;;;39.58;25.05;99603.97;4823392;29;20026;-44
2023/07/23 07:36:17;;;;;;;11.57;4.15;;;;;;;39.32;25.48;99601.66;4823077;29;20026;-44
2023/07/23 07:38:42;;;;;;;6.78;4.68;;;;;;;39.19;25.44;99593.75;4839049;29;20034;-44
2023/07/23 07:41:08;;;;;;;9.13;3.88;;;;;;;39.30;24.99;99602.09;4841466;29;20034;-43
2023/07/23 07:43:34;;;;;;;7.55;4.28;;;;;;;39.51;24.32;99595.69;4842050;29;20067;-43
2023/07/23 07:46:00;;;;;;;8.65;4.47;;;;;;;39.74;24.72;99594.34;4841410;29;20396;-44
2023/07/23 07:48:30;;;;;;;11.15;4.07;;;;;;;39.74;24.15;99591.56;4840759;29;20167;-44
2023/07/23 07:50:59;;;;;;;6.43;4.00;;;;;;;40.20;23.55;99587.75;4841300;29;20456;-44
2023/07/23 07:53:25;;;;;;;10.25;4.32;;;;;;;40.86;23.39;99570.13;4841545;29;20030;-43
2023/07/23 07:55:50;;;;;;;6.40;3.97;;;;;;;40.61;23.00;99582.28;4840483;29;20044;-44
2023/07/23 07:58:16;;;;;;;10.95;4.50;;;;;;;40.04;23.59;99580.72;4840082;29;20038;-48
2023/07/23 08:00:42;;;;;;;6.85;4.20;;;;;;;40.44;23.26;99578.44;4840351;29;20036;-43
2023/07/23 08:03:08;;;;;;;6.40;4.18;;;;;;;40.62;22.99;99583.06;4841093;29;20022;-45
2023/07/23 08:05:34;;;;;;;6.97;3.88;;;;;;;39.72;23.33;99589.22;4840947;29;20105;-44
2023/07/23 08:08:01;;;;;;;8.10;4.03;;;;;;;40.52;22.22;99584.75;4840911;29;20030;-43
2023/07/23 08:10:27;;;;;;;9.57;4.10;;;;;;;40.77;22.29;99584.56;4838672;29;20487;-45
2023/07/23 08:12:54;;;;;;;7.43;4.47;;;;;;;40.41;23.29;99587.63;4840787;29;20094;-44
2023/07/23 08:15:20;;;;;;;8.38;3.90;;;;;;;40.91;22.49;99588.41;4841125;29;20495;-44
2023/07/23 08:17:46;;;;;;;8.10;3.70;;;;;;;40.82;21.99;99581.31;4841201;29;20020;-44
2023/07/23 08:20:13;;;;;;;5.00;4.00;;;;;;;40.56;22.23;99585.50;4839663;29;20110;-43
2023/07/23 08:22:38;;;;;;;7.15;4.03;;;;;;;40.37;20.70;99572.13;4840654;29;20355;-44
2023/07/23 08:25:04;;;;;;;8.25;4.05;;;;;;;39.94;20.96;99578.75;4840879;29;20018;-44
2023/07/23 08:27:32;;;;;;;12.90;4.13;;;;;;;40.23;21.07;99581.34;4841149;29;20061;-43
2023/07/23 08:29:59;;;;;;;8.13;4.30;;;;;;;40.57;20.63;99575.13;4858589;29;20059;-45
2023/07/23 08:32:24;;;;;;;5.55;4.15;;;;;;;40.23;21.29;99584.13;4859277;29;20116;-43
2023/07/23 08:34:50;;;;;;;7.28;4.22;;;;;;;40.21;21.59;99576.22;4858931;29;20101;-42
2023/07/23 08:37:16;;;;;;;9.27;4.18;;;;;;;40.12;20.63;99575.06;4858812;29;20139;-45
2023/07/23 08:39:42;;;;;;;8.07;4.22;;;;;;;40.37;20.68;99594.44;4858804;29;20036;-44
2023/07/23 08:42:31;;;;;;;8.13;4.20;;;;;;;40.02;20.44;99568.38;4858832;29;20060;-43
2023/07/23 08:45:38;;;;;;;9.25;3.95;;;;;;;39.28;20.48;99577.44;4858928;29;20022;-45
2023/07/23 08:48:03;;;;;;;9.98;4.25;;;;;;;39.20;20.99;99575.06;4783663;30;20097;-45
2023/07/23 08:50:29;;;;;;;9.73;4.40;;;;;;;39.20;21.06;99572.28;4783614;30;20582;-45
2023/07/23 08:52:55;;;;;;;6.07;4.00;;;;;;;40.06;20.61;99569.94;4819083;29;20053;-44
2023/07/23 08:55:21;;;;;;;11.23;4.70;;;;;;;39.84;20.02;99563.69;4858473;29;20113;-45
2023/07/23 08:57:46;;;;;;;6.70;4.35;;;;;;;40.14;19.60;99567.13;4858499;29;20108;-44
2023/07/23 09:00:13;;;;;;;9.98;4.20;;;;;;;39.39;19.59;99571.81;4858552;29;20070;-45
2023/07/23 09:02:40;;;;;;;15.50;4.70;;;;;;;39.00;20.64;99571.97;4857840;29;20060;-42
2023/07/23 09:05:06;;;;;;;8.25;4.47;;;;;;;39.64;20.35;99574.53;4858458;29;20026;-43
2023/07/23 09:07:34;;;;;;;7.18;4.05;;;;;;;40.00;19.52;99571.56;4858505;29;20033;-44
2023/07/23 09:09:59;;;;;;;14.73;4.60;;;;;;;39.82;20.14;99576.44;4857876;29;20089;-43
2023/07/23 09:12:25;;;;;;;9.57;4.65;;;;;;;38.98;20.64;99582.66;4857585;29;20037;-45
2023/07/23 09:14:51;;;;;;;9.18;4.82;;;;;;;38.96;20.98;99587.84;4858374;29;20037;-44
2023/07/23 09:17:19;;;;;;;6.53;4.45;;;;;;;39.38;21.06;99575.03;4858775;29;20053;-42
2023/07/23 09:19:44;;;;;;;9.55;4.45;;;;;;;39.74;20.04;99574.88;4857695;29;20045;-45
2023/07/23 09:22:10;;;;;;;6.43;4.53;;;;;;;39.68;20.10;99578.09;4856692;29;20033;-45
2023/07/23 09:24:36;;;;;;;10.27;4.85;;;;;;;40.16;19.38;99568.28;4850621;29;20032;-43
2023/07/23 09:27:02;;;;;;;8.07;4.70;;;;;;;40.69;19.28;99579.41;4857793;29;20523;-46
2023/07/23 09:29:43;;;;;;;9.65;5.10;;;;;;;40.84;18.89;99561.38;4841704;29;20209;-43
2023/07/23 09:32:25;;;;;;;6.38;4.53;;;;;;;39.86;19.82;99564.06;4836525;29;20048;-47
2023/07/23 09:34:52;;;;;;;6.03;4.50;;;;;;;39.68;19.88;99550.25;4838125;29;20100;-44
2023/07/23 09:37:17;;;;;;;6.65;4.60;;;;;;;40.11;19.57;99554.78;4838670;29;20040;-47
2023/07/23 09:39:43;;;;;;;7.88;4.63;;;;;;;40.80;19.16;99549.47;4836946;29;20046;-46
2023/07/23 09:42:08;;;;;;;8.43;4.93;;;;;;;41.10;18.13;99562.69;4839584;29;20049;-46
2023/07/23 09:44:38;;;;;;;16.67;6.15;;;;;;;40.33;17.96;99560.22;4839621;29;20479;-43
2023/07/23 09:47:04;;;;;;;11.95;5.53;;;;;;;39.71;18.38;99551.44;4837995;29;20030;-43
2023/07/23 09:49:30;;;;;;;8.00;5.47;;;;;;;40.05;18.24;99543.28;4839006;29;20070;-43
2023/07/23 09:51:55;;;;;;;7.43;4.90;;;;;;;40.32;17.51;99548.25;4838464;29;20086;-43
2023/07/23 09:54:21;;;;;;;15.30;6.05;;;;;;;40.49;17.41;99563.25;4839360;29;20420;-44
2023/07/23 09:56:49;;;;;;;11.18;6.28;;;;;;;40.42;17.58;99546.59;4837466;29;20056;-43
2023/07/23 09:59:14;;;;;;;12.57;6.45;;;;;;;40.07;17.24;99546.44;4839077;29;20042;-43
2023/07/23 10:01:40;;;;;;;10.65;6.30;;;;;;;39.66;17.40;99543.50;4839322;29;20038;-43
2023/07/23 10:04:09;;;;;;;10.45;5.60;;;;;;;39.88;17.90;99539.41;4839468;29;20113;-43
2023/07/23 10:06:34;;;;;;;9.10;5.60;;;;;;;40.00;17.90;99534.56;4839553;29;20102;-43
2023/07/23 10:09:02;;;;;;;14.15;6.60;;;;;;;40.20;17.17;99543.97;4839715;29;20026;-43
2023/07/23 10:11:27;;;;;;;9.23;6.40;;;;;;;40.63;16.85;99537.25;4837215;29;20029;-43
2023/07/23 10:13:53;;;;;;;9.43;6.07;;;;;;;40.30;16.78;99542.28;4838934;29;20125;-45
2023/07/23 10:16:26;;;;;;;23.35;7.47;;;;;;;39.64;17.27;99541.13;4840764;29;20460;-43
2023/07/23 10:18:54;;;;;;;9.07;5.80;;;;;;;39.37;18.15;99532.47;4844480;29;20456;-47
2023/07/23 10:21:20;;;;;;;8.52;5.60;;;;;;;39.92;17.58;99528.25;4821489;29;20033;-43
2023/07/23 10:23:56;;;;;;;8.15;5.60;;;;;;;40.29;17.94;99534.34;4821531;29;20031;-43
2023/07/23 10:26:26;;;;;;;8.77;5.45;;;;;;;40.59;17.88;99522.56;4821278;29;20410;-44
2023/07/23 10:29:07;;;;;;;13.52;5.80;;;;;;;40.43;17.14;99531.47;4820953;29;20081;-44
2023/07/23 10:31:33;;;;;;;10.07;5.80;;;;;;;40.19;17.31;99530.44;4821632;29;20091;-44
2023/07/23 10:33:59;;;;;;;8.82;5.70;;;;;;;39.86;17.45;99529.88;4822029;29;20204;-45
2023/07/23 10:36:25;;;;;;;11.27;5.65;;;;;;;40.01;17.66;99534.16;4823264;29;20550;-43
2023/07/23 10:39:05;;;;;;;11.35;6.28;;;;;;;39.59;16.77;99536.00;4824461;29;20038;-45
2023/07/23 10:41:55;;;;;;;10.45;5.65;;;;;;;39.78;17.14;99519.97;4824276;29;20034;-47
2023/07/23 10:44:24;;;;;;;10.70;6.10;;;;;;;39.74;16.84;99527.53;4817400;29;20054;-43
2023/07/23 10:46:50;;;;;;;10.43;6.18;;;;;;;39.11;17.92;99522.66;4824434;29;20111;-48
2023/07/23 10:49:29;;;;;;;10.15;6.75;;;;;;;39.38;17.56;99530.50;4824099;29;20499;-43
2023/07/23 10:52:10;;;;;;;12.55;6.85;;;;;;;39.34;17.21;99510.22;4824508;29;20117;-45
2023/07/23 10:54:37;;;;;;;10.02;6.63;;;;;;;39.64;16.98;99513.31;4824306;29;20121;-45
2023/07/23 10:57:04;;;;;;;14.23;7.57;;;;;;;39.55;16.88;99514.94;4824470;29;20403;-44
2023/07/23 10:59:30;;;;;;;10.57;7.45;;;;;;;39.71;17.03;99506.88;4832262;29;20037;-42
2023/07/23 11:01:56;;;;;;;13.50;6.95;;;;;;;39.49;16.94;99507.00;4841879;29;20026;-43
2023/07/23 11:04:26;;;;;;;11.73;7.20;;;;;;;39.59;16.83;99513.72;4842447;29;20030;-45
2023/07/23 11:07:04;;;;;;;10.75;6.88;;;;;;;39.47;16.46;99506.63;4842282;29;20120;-44
2023/07/23 11:09:32;;;;;;;16.02;7.00;;;;;;;40.02;16.60;99507.91;4841988;29;20108;-44
2023/07/23 11:11:59;;;;;;;10.88;6.45;;;;;;;40.52;16.13;99514.25;4842180;29;20034;-44
2023/07/23 11:14:26;;;;;;;11.98;6.80;;;;;;;39.98;16.68;99509.13;4842333;29;20034;-45
2023/07/23 11:16:58;;;;;;;11.00;6.65;;;;;;;39.99;16.03;99503.13;4846853;29;20029;-45
2023/07/23 11:19:25;;;;;;;10.82;6.72;;;;;;;39.77;16.54;99493.31;4856349;29;20407;-44
2023/07/23 11:21:56;;;;;;;12.73;6.85;;;;;;;39.33;17.32;99492.75;4842194;29;20026;-42
2023/07/23 11:24:23;;;;;;;12.55;7.13;;;;;;;39.83;16.84;99489.72;4842152;29;20459;-42